createdAt,value
2024-01-15T00:00:06.067Z,99221.00
2024-01-15T00:02:35.617Z,99214.72
2024-01-15T00:05:52.890Z,99210.09
2024-01-15T00:08:23.989Z,99203.97
2024-01-15T00:10:52.562Z,99203.16
2024-01-15T00:13:34.775Z,99199.50
2024-01-15T00:16:08.246Z,99180.97
2024-01-15T00:18:40.868Z,99188.09
2024-01-15T00:21:23.475Z,99177.66
2024-01-15T00:24:06.246Z,99157.66
2024-01-15T00:26:37.363Z,99161.81
2024-01-15T00:29:21.051Z,99166.44
2024-01-15T00:31:55.788Z,99166.75
2024-01-15T00:34:26.837Z,99157.66
2024-01-15T00:36:55.074Z,99152.69
2024-01-15T00:39:27.632Z,99151.69
2024-01-15T00:41:58.320Z,99143.25
2024-01-15T00:44:29.384Z,99153.19
2024-01-15T00:46:57.009Z,99136.78
2024-01-15T00:49:32.279Z,99142.75
2024-01-15T00:52:00.635Z,99137.94
2024-01-15T00:54:36.479Z,99133.31
2024-01-15T00:57:16.346Z,99132.34
2024-01-15T00:59:43.780Z,99132.66
2024-01-15T01:02:14.602Z,99114.78
2024-01-15T01:04:47.559Z,99127.38
2024-01-15T01:07:18.650Z,99121.56
2024-01-15T01:09:56.875Z,99125.69
2024-01-15T01:12:26.540Z,99123.22
2024-01-15T01:14:56.282Z,99128.31
2024-01-15T01:17:42.541Z,99125.38
2024-01-15T01:23:07.946Z,99117.44
2024-01-15T01:25:39.425Z,99125.88
2024-01-15T01:28:31.847Z,99132.31
2024-01-15T01:31:06.298Z,99123.53
2024-01-15T01:36:20.452Z,99119.44
2024-01-15T01:39:12.109Z,99119.44
2024-01-15T01:41:46.536Z,99124.06
2024-01-15T01:44:17.423Z,99124.06
2024-01-15T01:46:48.372Z,99108.53
2024-01-15T01:49:16.168Z,99114.28
2024-01-15T01:51:43.712Z,99102.69
2024-01-15T01:54:25.204Z,99113.13
2024-01-15T01:56:54.541Z,99097.59
2024-01-15T01:59:23.819Z,99085.03
2024-01-15T02:01:55.738Z,99086.66
2024-01-15T02:04:41.056Z,99098.59
2024-01-15T02:07:11.897Z,99094.44
2024-01-15T02:09:48.000Z,99086.81
2024-01-15T02:12:17.213Z,99079.59
2024-01-15T02:14:47.116Z,99083.38
2024-01-15T02:17:27.013Z,99080.56
2024-01-15T02:19:56.326Z,99069.50
2024-01-15T02:25:47.010Z,99061.19
2024-01-15T02:28:32.917Z,99059.53
2024-01-15T02:31:08.038Z,99072.13
2024-01-15T02:33:37.035Z,99070.44
2024-01-15T02:36:18.512Z,99067.47
2024-01-15T02:38:50.345Z,99061.88
2024-01-15T02:41:28.437Z,99059.41
2024-01-15T02:44:00.784Z,99061.56
2024-01-15T02:46:28.190Z,99060.75
2024-01-15T02:49:08.053Z,99057.75
2024-01-15T02:51:37.764Z,99055.94
2024-01-15T02:54:06.938Z,99056.28
2024-01-15T02:56:36.137Z,99054.09
2024-01-15T02:59:08.675Z,99055.94
2024-01-15T03:01:38.448Z,99056.75
2024-01-15T03:04:06.197Z,99058.41
2024-01-15T03:06:33.551Z,99051.78
2024-01-15T03:12:15.286Z,99056.94
2024-01-15T03:14:48.486Z,99039.75
2024-01-15T03:17:19.740Z,99040.91
2024-01-15T03:20:03.692Z,99045.22
2024-01-15T03:22:38.259Z,99043.72
2024-01-15T03:25:08.813Z,99048.50
2024-01-15T03:27:41.906Z,99033.94
2024-01-15T03:30:16.042Z,99023.31
2024-01-15T03:32:43.232Z,99017.22
2024-01-15T03:35:18.572Z,99012.78
2024-01-15T03:37:49.678Z,99024.53
2024-01-15T03:40:24.101Z,99015.09
2024-01-15T03:45:32.262Z,99010.84
2024-01-15T03:48:07.576Z,98992.50
2024-01-15T03:50:43.836Z,98998.75
2024-01-15T03:53:14.158Z,99001.09
2024-01-15T03:55:47.963Z,98991.47
2024-01-15T03:58:19.538Z,98990.50
2024-01-15T04:01:02.898Z,98996.44
2024-01-15T04:03:51.792Z,98992.34
2024-01-15T04:06:18.978Z,98992.34
2024-01-15T04:08:52.598Z,98998.75
2024-01-15T04:11:42.328Z,98974.66
2024-01-15T04:14:16.574Z,98993.47
2024-01-15T04:16:49.168Z,98985.22
2024-01-15T04:19:24.005Z,98978.38
2024-01-15T04:21:53.033Z,98980.84
2024-01-15T04:24:23.044Z,98979.91
2024-01-15T04:29:34.640Z,98971.00
2024-01-15T04:32:03.095Z,98965.34
2024-01-15T04:34:37.873Z,98954.63
2024-01-15T04:37:08.619Z,98958.97
2024-01-15T04:39:39.697Z,98966.88
2024-01-15T04:42:10.771Z,98955.31
2024-01-15T04:44:49.046Z,98947.50
2024-01-15T04:47:26.005Z,98939.56
2024-01-15T04:49:56.813Z,98936.22
2024-01-15T04:52:24.895Z,98933.63
2024-01-15T04:55:05.722Z,98933.84
2024-01-15T04:57:36.016Z,98943.91
2024-01-15T05:00:13.827Z,98939.78
2024-01-15T05:02:48.451Z,98935.63
2024-01-15T05:05:23.519Z,98935.00
2024-01-15T05:10:50.571Z,98947.91
2024-01-15T05:13:18.472Z,98952.84
2024-01-15T05:18:30.764Z,98941.56
2024-01-15T05:20:59.805Z,98935.31
2024-01-15T05:23:30.364Z,98938.09
2024-01-15T05:25:57.785Z,98924.69
2024-01-15T05:28:32.264Z,98930.03
2024-01-15T05:31:05.394Z,98931.19
2024-01-15T05:33:34.442Z,98932.31
2024-01-15T05:36:02.359Z,98934.13
2024-01-15T05:38:39.952Z,98940.25
2024-01-15T05:41:09.168Z,98938.91
2024-01-15T05:43:38.687Z,98936.75
2024-01-15T05:46:19.172Z,98947.19
2024-01-15T05:49:10.272Z,98938.44
2024-01-15T05:51:40.395Z,98938.75
2024-01-15T05:54:07.873Z,98943.72
2024-01-15T05:56:42.155Z,98941.25
2024-01-15T05:59:20.648Z,98944.22
2024-01-15T06:01:58.873Z,98938.25
2024-01-15T06:04:31.326Z,98936.91
2024-01-15T06:07:06.018Z,98927.75
2024-01-15T06:09:37.317Z,98909.38
2024-01-15T06:12:06.280Z,98907.28
2024-01-15T06:14:37.274Z,98917.09
2024-01-15T06:17:07.903Z,98911.50
2024-01-15T06:19:52.443Z,98897.63
2024-01-15T06:22:23.238Z,98904.88
2024-01-15T06:24:56.028Z,98895.13
2024-01-15T06:27:29.471Z,98894.97
2024-01-15T06:30:08.329Z,98888.66
2024-01-15T06:32:45.278Z,98895.78
2024-01-15T06:35:22.646Z,98897.97
2024-01-15T06:37:58.183Z,98903.94
2024-01-15T06:40:30.084Z,98898.00
2024-01-15T06:43:22.685Z,98903.94
2024-01-15T06:46:12.046Z,98906.25
2024-01-15T06:51:26.276Z,98909.22
2024-01-15T06:53:53.461Z,98908.56
2024-01-15T06:59:01.209Z,98918.81
2024-01-15T07:01:31.780Z,98918.50
2024-01-15T07:04:03.734Z,98915.53
2024-01-15T07:06:32.087Z,98926.72
2024-01-15T07:09:30.083Z,98908.34
2024-01-15T07:11:50.335Z,98912.47
2024-01-15T07:14:19.152Z,98905.50
2024-01-15T07:16:57.636Z,98919.72
2024-01-15T07:19:31.311Z,98914.78
2024-01-15T07:22:13.552Z,98917.59
2024-01-15T07:25:01.925Z,98913.47
2024-01-15T07:27:29.143Z,98917.41
2024-01-15T07:30:07.160Z,98918.09
2024-01-15T07:32:35.673Z,98911.63
2024-01-15T07:35:07.183Z,98907.00
2024-01-15T07:37:35.226Z,98908.94
2024-01-15T07:46:14.359Z,98894.31
2024-01-15T07:48:44.452Z,98892.66
2024-01-15T07:51:12.623Z,98897.19
2024-01-15T07:53:40.191Z,98901.44
2024-01-15T07:56:11.723Z,98893.50
2024-01-15T07:58:45.980Z,98896.81
2024-01-15T08:01:18.887Z,98889.50
2024-01-15T08:03:57.194Z,98895.16
2024-01-15T08:06:35.390Z,98893.47
2024-01-15T08:09:06.268Z,98895.16
2024-01-15T08:11:33.466Z,98889.22
2024-01-15T08:14:02.359Z,98883.75
2024-01-15T08:16:30.429Z,98879.25
2024-01-15T08:19:14.379Z,98886.22
2024-01-15T08:21:49.167Z,98886.47
2024-01-15T08:24:21.263Z,98889.25
2024-01-15T08:29:39.956Z,98904.53
2024-01-15T08:32:07.811Z,98908.28
2024-01-15T08:34:53.860Z,98910.25
2024-01-15T08:37:42.045Z,98917.13
2024-01-15T08:40:10.168Z,98919.91
2024-01-15T08:42:51.923Z,98931.25
2024-01-15T08:45:24.299Z,98931.63
2024-01-15T08:47:54.153Z,98923.66
2024-01-15T08:50:21.613Z,98920.03
2024-01-15T08:52:49.667Z,98915.38
2024-01-15T08:55:19.452Z,98907.66
2024-01-15T08:57:47.124Z,98899.47
2024-01-15T09:00:16.951Z,98912.28
2024-01-15T09:03:04.076Z,98911.44
2024-01-15T09:05:42.414Z,98904.38
2024-01-15T09:08:10.452Z,98906.47
2024-01-15T09:10:44.976Z,98906.25
2024-01-15T09:13:17.877Z,98899.41
2024-01-15T09:15:47.630Z,98908.69
2024-01-15T09:18:17.102Z,98901.34
2024-01-15T09:20:58.790Z,98908.09
2024-01-15T09:23:29.726Z,98905.03
2024-01-15T09:26:07.707Z,98908.19
2024-01-15T09:28:40.264Z,98917.09
2024-01-15T09:31:09.798Z,98910.41
2024-01-15T09:33:37.640Z,98918.81
2024-01-15T09:36:10.970Z,98919.66
2024-01-15T09:38:44.254Z,98927.88
2024-01-15T09:41:11.818Z,98929.19
2024-01-15T09:44:00.780Z,98919.28
2024-01-15T09:52:11.926Z,98928.63
2024-01-15T09:54:49.820Z,98935.19
2024-01-15T09:57:20.493Z,98935.59
2024-01-15T09:59:50.387Z,98944.81
2024-01-15T10:02:31.846Z,98947.47
2024-01-15T10:05:01.709Z,98960.50
2024-01-15T10:08:02.505Z,98956.28
2024-01-15T10:10:20.612Z,98953.72
2024-01-15T10:12:50.158Z,98942.19
2024-01-15T10:17:59.460Z,98949.44
2024-01-15T10:20:51.911Z,98954.56
2024-01-15T10:23:26.477Z,98958.84
2024-01-15T10:25:54.192Z,98974.84
2024-01-15T10:28:29.889Z,98987.97
2024-01-15T10:31:02.494Z,99006.38
2024-01-15T10:33:33.382Z,99045.50
2024-01-15T10:36:11.319Z,99090.31
2024-01-15T10:38:47.020Z,99112.19
2024-01-15T10:41:14.423Z,99130.16
2024-01-15T10:43:47.774Z,99133.06
2024-01-15T10:46:20.681Z,99137.44
2024-01-15T10:48:52.661Z,99137.16
2024-01-15T10:51:27.638Z,99119.47
2024-01-15T10:53:59.613Z,99116.75
2024-01-15T10:56:49.822Z,99105.63
2024-01-15T10:59:38.670Z,99103.56
2024-01-15T11:04:50.374Z,99092.53
2024-01-15T11:10:48.501Z,99083.41
2024-01-15T11:13:53.090Z,99082.88
2024-01-15T11:16:20.931Z,99092.09
2024-01-15T11:19:20.374Z,99093.59
2024-01-15T11:21:50.096Z,99084.63
2024-01-15T11:24:57.343Z,99088.28
2024-01-15T11:27:53.938Z,99084.44
2024-01-15T11:30:30.484Z,99083.41
2024-01-15T11:32:58.239Z,99085.09
2024-01-15T11:35:52.088Z,99092.88
2024-01-15T11:38:31.680Z,99093.69
2024-01-15T11:41:03.539Z,99089.19
2024-01-15T11:43:32.996Z,99088.44
2024-01-15T11:46:07.050Z,99086.50
2024-01-15T11:49:11.689Z,99088.81
2024-01-15T11:51:55.775Z,99090.13
2024-01-15T11:54:38.158Z,99082.78
2024-01-15T11:57:16.439Z,99073.44
2024-01-15T11:59:48.767Z,99070.50
2024-01-15T12:02:24.094Z,99065.19
2024-01-15T12:05:00.291Z,99040.91
2024-01-15T12:07:56.019Z,99022.22
2024-01-15T12:10:32.427Z,99006.75
2024-01-15T12:13:37.110Z,99013.44
2024-01-15T12:16:25.454Z,99010.31
2024-01-15T12:19:07.898Z,99010.09
2024-01-15T12:21:48.723Z,98999.25
2024-01-15T12:24:20.957Z,98987.59
2024-01-15T12:27:00.194Z,98975.88
2024-01-15T12:29:31.034Z,98973.75
2024-01-15T12:32:03.192Z,98968.19
2024-01-15T12:34:46.206Z,98962.31
2024-01-15T12:37:17.310Z,98963.75
2024-01-15T12:39:52.951Z,98964.44
2024-01-15T12:42:28.055Z,98955.81
2024-01-15T12:45:08.873Z,98948.16
2024-01-15T12:47:38.547Z,98949.88
2024-01-15T12:50:20.086Z,98962.72
2024-01-15T12:52:57.834Z,98949.22
2024-01-15T12:55:30.587Z,98949.97
2024-01-15T12:57:59.828Z,98953.69
2024-01-15T13:00:27.857Z,98938.28
2024-01-15T13:03:03.832Z,98937.28
2024-01-15T13:05:54.098Z,98941.06
2024-01-15T13:11:02.382Z,98922.75
2024-01-15T13:13:39.011Z,98927.50
2024-01-15T13:16:10.235Z,98920.53
2024-01-15T13:18:41.066Z,98916.72
2024-01-15T13:21:14.452Z,98923.81
2024-01-15T13:23:42.976Z,98921.84
2024-01-15T13:26:18.955Z,98917.81
2024-01-15T13:28:46.693Z,98913.09
2024-01-15T13:31:14.209Z,98912.91
2024-01-15T13:33:48.059Z,98918.22
2024-01-15T13:36:20.275Z,98910.63
2024-01-15T13:38:59.115Z,98918.41
2024-01-15T13:41:28.664Z,98917.38
2024-01-15T13:43:59.697Z,98917.13
2024-01-15T13:46:29.202Z,98907.63
2024-01-15T13:49:01.161Z,98902.47
2024-01-15T13:54:34.089Z,98895.16
2024-01-15T13:57:16.585Z,98882.56
2024-01-15T13:59:46.712Z,98880.38
2024-01-15T14:02:24.980Z,98877.31
2024-01-15T14:05:02.789Z,98878.75
2024-01-15T14:07:34.477Z,98875.44
2024-01-15T14:10:08.099Z,98871.63
2024-01-15T14:12:52.351Z,98870.34
2024-01-15T14:15:24.581Z,98869.50
2024-01-15T14:18:09.181Z,98866.00
2024-01-15T14:20:57.893Z,98864.75
2024-01-15T14:23:43.181Z,98856.75
2024-01-15T14:26:15.411Z,98853.66
2024-01-15T14:28:44.536Z,98849.38
2024-01-15T14:31:36.573Z,98846.69
2024-01-15T14:34:15.121Z,98850.16
2024-01-15T14:36:49.434Z,98861.47
2024-01-15T14:42:13.891Z,98871.53
2024-01-15T14:45:00.127Z,98869.44
2024-01-15T14:47:28.610Z,98871.09
2024-01-15T14:52:41.015Z,98870.91
2024-01-15T14:55:11.249Z,98871.72
2024-01-15T14:57:43.756Z,98863.75
2024-01-15T15:00:13.738Z,98863.75
2024-01-15T15:02:41.457Z,98858.78
2024-01-15T15:05:22.312Z,98855.09
2024-01-15T15:07:50.180Z,98855.91
2024-01-15T15:10:21.986Z,98864.31
2024-01-15T15:12:54.936Z,98860.03
2024-01-15T15:15:26.165Z,98846.06
2024-01-15T15:17:53.365Z,98849.75
2024-01-15T15:20:38.629Z,98843.81
2024-01-15T15:23:09.560Z,98834.97
2024-01-15T15:25:44.986Z,98836.00
2024-01-15T15:28:16.916Z,98836.22
2024-01-15T15:30:44.317Z,98836.63
2024-01-15T15:33:14.106Z,98836.63
2024-01-15T15:35:42.380Z,98837.44
2024-01-15T15:38:17.131Z,98826.97
2024-01-15T15:40:47.613Z,98823.91
2024-01-15T15:43:19.440Z,98836.41
2024-01-15T15:45:57.341Z,98829.81
2024-01-15T15:48:32.041Z,98838.63
2024-01-15T15:51:04.032Z,98837.81
2024-01-15T15:53:35.661Z,98844.38
2024-01-15T15:58:58.107Z,98853.34
2024-01-15T16:01:25.984Z,98859.28
2024-01-15T16:03:54.686Z,98853.88
2024-01-15T16:06:32.447Z,98856.94
2024-01-15T16:09:21.669Z,98855.63
2024-01-15T16:11:51.020Z,98859.75
2024-01-15T16:14:23.839Z,98866.09
2024-01-15T16:23:15.498Z,98859.91
2024-01-15T16:23:30.262Z,98862.16
2024-01-15T16:24:02.354Z,98861.69
2024-01-15T16:29:04.712Z,98874.34
2024-01-15T16:31:54.284Z,98854.25
2024-01-15T16:34:24.320Z,98853.88
2024-01-15T16:36:54.733Z,98863.66
2024-01-15T16:39:36.187Z,98865.09
2024-01-15T16:44:46.750Z,98882.97
2024-01-15T16:47:13.981Z,98877.41
2024-01-15T16:49:50.508Z,98880.47
2024-01-15T16:52:27.295Z,98880.06
2024-01-15T16:54:55.933Z,98862.22
2024-01-15T16:57:26.915Z,98870.97
2024-01-15T16:59:56.942Z,98856.81
2024-01-15T17:02:26.516Z,98866.78
2024-01-15T17:04:57.098Z,98874.09
2024-01-15T17:07:29.568Z,98876.97
2024-01-15T17:10:01.554Z,98874.09
2024-01-15T17:12:36.761Z,98887.06
2024-01-15T17:15:09.417Z,98885.09
2024-01-15T17:17:42.263Z,98879.97
2024-01-15T17:20:23.721Z,98875.91
2024-01-15T17:22:58.362Z,98875.94
2024-01-15T17:25:30.254Z,98897.47
2024-01-15T17:28:05.323Z,98889.06
2024-01-15T17:30:38.186Z,98902.84
2024-01-15T17:33:08.341Z,98889.66
2024-01-15T17:35:46.765Z,98901.72
2024-01-15T17:38:22.270Z,98904.94
2024-01-15T17:40:53.797Z,98904.50
2024-01-15T17:43:28.200Z,98912.34
2024-01-15T17:46:02.094Z,98903.38
2024-01-15T17:48:38.922Z,98901.34
2024-01-15T17:51:08.431Z,98894.63
2024-01-15T17:53:37.419Z,98892.97
2024-01-15T17:56:13.143Z,98892.88
2024-01-15T17:58:48.747Z,98891.53
2024-01-15T18:01:19.610Z,98899.06
2024-01-15T18:03:48.860Z,98913.91
2024-01-15T18:06:17.437Z,98915.28
2024-01-15T18:08:47.870Z,98916.72
2024-01-15T18:11:20.678Z,98910.34
2024-01-15T18:13:53.140Z,98920.59
2024-01-15T18:16:35.338Z,98928.06
2024-01-15T18:19:08.750Z,98922.84
2024-01-15T18:21:43.367Z,98918.66
2024-01-15T18:24:28.901Z,98924.91
2024-01-15T18:26:57.674Z,98926.09
2024-01-15T18:29:32.683Z,98934.00
2024-01-15T18:32:10.707Z,98951.88
2024-01-15T18:34:39.168Z,98959.16
2024-01-15T18:37:13.731Z,98953.84
2024-01-15T18:40:12.846Z,98967.50
2024-01-15T18:42:46.628Z,98970.09
2024-01-15T18:45:38.210Z,98968.56
2024-01-15T18:48:08.913Z,98971.03
2024-01-15T18:50:37.976Z,98974.28
2024-01-15T18:53:15.980Z,98982.59
2024-01-15T18:55:45.026Z,98983.41
2024-01-15T18:58:20.569Z,98971.28
2024-01-15T19:00:53.762Z,98983.75
2024-01-15T19:03:30.982Z,98983.41
2024-01-15T19:06:10.051Z,99001.91
2024-01-15T19:08:37.371Z,99008.63
2024-01-15T19:11:04.993Z,98997.81
2024-01-15T19:16:16.415Z,99001.44
2024-01-15T19:18:54.438Z,98998.81
2024-01-15T19:21:29.880Z,98997.84
2024-01-15T19:24:23.975Z,99005.97
2024-01-15T19:26:57.436Z,99007.84
2024-01-15T19:29:30.603Z,99004.13
2024-01-15T19:32:00.052Z,99003.53
2024-01-15T19:34:28.938Z,99006.28
2024-01-15T19:36:57.445Z,98997.28
2024-01-15T19:39:29.794Z,98999.81
2024-01-15T19:42:06.286Z,98997.06
2024-01-15T19:44:56.646Z,98991.53
2024-01-15T19:47:27.962Z,98993.88
2024-01-15T19:49:57.069Z,98984.69
2024-01-15T19:52:29.082Z,99000.75
2024-01-15T19:55:00.781Z,98996.88
2024-01-15T19:57:28.856Z,99006.06
2024-01-15T19:59:59.649Z,99007.34
2024-01-15T20:02:35.137Z,99004.16
2024-01-15T20:05:15.157Z,99000.88
2024-01-15T20:07:43.513Z,98998.69
2024-01-15T20:10:23.359Z,99006.75
2024-01-15T20:15:32.519Z,99013.81
2024-01-15T20:18:11.985Z,99001.44
2024-01-15T20:20:49.948Z,99001.00
2024-01-15T20:23:19.422Z,99003.56
2024-01-15T20:25:50.607Z,98995.06
2024-01-15T20:28:17.996Z,99013.09
2024-01-15T20:30:45.740Z,98980.69
2024-01-15T20:38:41.635Z,98984.81
2024-01-15T20:41:35.494Z,98981.53
2024-01-15T20:44:08.389Z,98978.75
2024-01-15T20:46:38.661Z,98975.88
2024-01-15T20:49:14.449Z,98976.75
2024-01-15T20:51:49.448Z,98976.41
2024-01-15T20:54:18.964Z,98978.56
2024-01-15T20:56:48.344Z,98973.81
2024-01-15T20:59:20.903Z,98984.06
2024-01-15T21:04:32.731Z,98984.19
2024-01-15T21:07:01.330Z,98980.19
2024-01-15T21:09:30.536Z,98984.47
2024-01-15T21:11:57.713Z,98983.81
2024-01-15T21:14:26.662Z,98986.41
2024-01-15T21:17:03.237Z,98979.09
2024-01-15T21:22:12.125Z,98974.19
2024-01-15T21:24:41.624Z,98979.50
2024-01-15T21:27:13.131Z,98976.31
2024-01-15T21:29:44.765Z,98985.22
2024-01-15T21:32:12.603Z,98985.53
2024-01-15T21:35:03.600Z,98989.03
2024-01-15T21:40:44.870Z,98993.81
2024-01-15T21:43:08.996Z,98989.00
2024-01-15T21:45:37.682Z,98982.06
2024-01-15T21:48:29.689Z,98978.09
2024-01-15T21:50:59.324Z,98986.97
2024-01-15T21:53:31.438Z,98984.09
2024-01-15T21:56:03.831Z,98988.38
2024-01-15T21:58:40.584Z,98990.41
2024-01-15T22:01:09.965Z,98999.44
2024-01-15T22:03:46.946Z,98997.25
2024-01-15T22:06:19.147Z,99001.75
2024-01-15T22:08:52.652Z,99000.78
2024-01-15T22:11:38.646Z,99006.66
2024-01-15T22:16:51.486Z,99017.13
2024-01-15T22:19:25.928Z,99019.28
2024-01-15T22:21:58.493Z,98998.47
2024-01-15T22:24:28.180Z,99004.28
2024-01-15T22:27:23.262Z,99019.44
2024-01-15T22:29:58.248Z,99024.06
2024-01-15T22:32:32.670Z,99029.59
2024-01-15T22:35:04.627Z,99032.19
2024-01-15T22:37:39.091Z,99033.16
2024-01-15T22:40:21.885Z,99034.97
2024-01-15T22:43:00.549Z,99032.19
2024-01-15T22:45:32.635Z,99036.03
2024-01-15T22:48:00.876Z,99036.03
2024-01-15T22:50:35.253Z,99040.44
2024-01-15T22:53:17.506Z,99040.09
2024-01-15T22:55:44.998Z,99044.06
2024-01-15T22:58:24.312Z,99043.03
2024-01-15T23:00:53.620Z,99040.94
2024-01-15T23:03:20.964Z,99044.25
2024-01-15T23:05:58.623Z,99048.34
2024-01-15T23:08:31.328Z,99046.31
2024-01-15T23:11:02.275Z,99051.56
2024-01-15T23:13:29.541Z,99047.53
2024-01-15T23:15:56.700Z,99051.56
2024-01-15T23:18:48.012Z,99053.91
2024-01-15T23:21:15.300Z,99055.72
2024-01-15T23:23:43.310Z,99044.66
2024-01-15T23:26:17.544Z,99041.19
2024-01-15T23:28:51.355Z,99031.72
2024-01-15T23:31:23.310Z,99038.00
2024-01-15T23:33:53.626Z,99041.63
2024-01-15T23:36:20.975Z,99043.59
2024-01-15T23:38:51.921Z,99032.03
2024-01-15T23:41:22.793Z,99039.81
2024-01-15T23:43:55.640Z,99045.41
2024-01-15T23:46:26.169Z,99034.78
2024-01-15T23:49:02.394Z,99040.94
2024-01-15T23:51:43.615Z,99038.81
2024-01-15T23:54:19.997Z,99055.47
2024-01-15T23:56:50.639Z,99050.66
2024-01-15T23:59:31.364Z,99045.53
